createdAt,value
2018-09-21T00:00:57.438Z,20.47
2018-09-21T00:03:25.855Z,20.65
2018-09-21T00:05:54.297Z,20.60
2018-09-21T00:08:22.762Z,20.50
2018-09-21T00:10:51.204Z,20.47
2018-09-21T00:13:19.605Z,20.43
2018-09-21T00:15:48.043Z,20.38
2018-09-21T00:18:16.459Z,20.45
2018-09-21T00:20:44.906Z,20.41
2018-09-21T00:23:13.289Z,20.37
2018-09-21T00:25:41.902Z,20.30
2018-09-21T00:28:10.302Z,20.27
2018-09-21T00:30:38.690Z,20.23
2018-09-21T00:33:07.139Z,20.27
2018-09-21T00:35:35.546Z,20.18
2018-09-21T00:38:03.979Z,20.28
2018-09-21T00:40:32.386Z,20.22
2018-09-21T00:43:00.883Z,20.11
2018-09-21T00:45:29.286Z,20.01
2018-09-21T00:47:57.733Z,19.94
2018-09-21T00:50:26.152Z,19.92
2018-09-21T00:52:54.589Z,19.92
2018-09-21T00:55:23.001Z,19.85
2018-09-21T00:57:51.425Z,19.81
2018-09-21T01:00:19.931Z,19.84
2018-09-21T01:02:48.405Z,19.86
2018-09-21T01:05:16.834Z,19.94
2018-09-21T01:07:45.301Z,19.98
2018-09-21T01:10:13.748Z,20.08
2018-09-21T01:12:42.239Z,20.12
2018-09-21T01:15:10.707Z,20.10
2018-09-21T01:17:39.187Z,19.98
2018-09-21T01:20:07.634Z,19.96
2018-09-21T01:22:36.088Z,19.87
2018-09-21T01:25:04.599Z,19.91
2018-09-21T01:27:33.048Z,19.88
2018-09-21T01:30:02.150Z,19.97
2018-09-21T01:32:30.583Z,19.89
2018-09-21T01:34:59.056Z,19.88
2018-09-21T01:37:27.542Z,19.85
2018-09-21T01:39:56.019Z,19.76
2018-09-21T01:42:24.456Z,19.70
2018-09-21T01:44:52.936Z,19.62
2018-09-21T01:47:21.395Z,19.73
2018-09-21T01:49:49.874Z,19.91
2018-09-21T01:52:18.374Z,19.82
2018-09-21T01:54:46.858Z,19.79
2018-09-21T01:57:15.316Z,19.76
2018-09-21T01:59:43.757Z,19.66
2018-09-21T02:02:12.186Z,19.60
2018-09-21T02:04:41.370Z,19.62
2018-09-21T02:07:11.575Z,19.39
2018-09-21T02:09:40.676Z,19.29
2018-09-21T02:12:09.091Z,19.36
2018-09-21T02:14:37.554Z,19.22
2018-09-21T02:17:06.459Z,19.13
2018-09-21T02:19:34.945Z,19.12
2018-09-21T02:22:03.479Z,19.05
2018-09-21T02:24:31.958Z,18.96
2018-09-21T02:27:00.447Z,18.87
2018-09-21T02:29:28.890Z,18.81
2018-09-21T02:31:57.359Z,18.75
2018-09-21T02:34:25.786Z,18.78
2018-09-21T02:36:54.247Z,18.89
2018-09-21T02:39:22.661Z,18.90
2018-09-21T02:41:51.119Z,18.83
2018-09-21T02:44:19.577Z,19.01
2018-09-21T02:46:48.035Z,19.08
2018-09-21T02:49:16.472Z,19.17
2018-09-21T02:51:44.934Z,19.12
2018-09-21T02:54:13.386Z,19.08
2018-09-21T02:56:42.810Z,19.27
2018-09-21T02:59:11.289Z,19.25
2018-09-21T03:01:39.763Z,19.38
2018-09-21T03:04:08.210Z,19.49
2018-09-21T03:06:36.692Z,19.58
2018-09-21T03:09:08.724Z,19.62
2018-09-21T03:11:37.505Z,19.65
2018-09-21T03:14:05.992Z,19.68
2018-09-21T03:16:34.610Z,19.68
2018-09-21T03:19:03.815Z,19.72
2018-09-21T03:21:32.403Z,19.68
2018-09-21T03:24:00.886Z,19.64
2018-09-21T03:26:29.374Z,19.64
2018-09-21T03:28:57.859Z,19.61
2018-09-21T03:31:26.294Z,19.45
2018-09-21T03:33:54.753Z,19.50
2018-09-21T03:36:23.188Z,19.60
2018-09-21T03:38:51.642Z,19.55
2018-09-21T03:41:20.102Z,19.62
2018-09-21T03:43:48.600Z,19.57
2018-09-21T03:46:17.112Z,19.59
2018-09-21T03:48:45.632Z,19.71
2018-09-21T03:51:14.090Z,19.71
2018-09-21T03:53:42.554Z,19.77
2018-09-21T03:56:10.994Z,19.76
2018-09-21T03:58:39.462Z,19.63
2018-09-21T04:01:08.200Z,19.51
2018-09-21T04:03:39.208Z,19.44
2018-09-21T04:06:07.662Z,19.37
2018-09-21T04:08:36.107Z,19.17
2018-09-21T04:11:04.617Z,19.17
2018-09-21T04:13:33.036Z,19.25
2018-09-21T04:16:02.041Z,19.10
2018-09-21T04:18:30.530Z,19.03
2018-09-21T04:20:59.004Z,18.94
2018-09-21T04:23:27.450Z,18.84
2018-09-21T04:25:55.968Z,18.74
2018-09-21T04:28:24.394Z,18.66
2018-09-21T04:30:52.872Z,18.66
2018-09-21T04:33:21.319Z,18.85
2018-09-21T04:35:49.774Z,18.88
2018-09-21T04:38:18.188Z,18.97
2018-09-21T04:40:46.618Z,19.00
2018-09-21T04:43:15.079Z,19.05
2018-09-21T04:45:43.574Z,19.06
2018-09-21T04:48:11.982Z,19.08
2018-09-21T04:50:40.413Z,18.93
2018-09-21T04:53:08.875Z,18.97
2018-09-21T04:55:37.310Z,18.94
2018-09-21T04:58:05.820Z,19.09
2018-09-21T05:00:34.251Z,19.26
2018-09-21T05:03:02.927Z,19.34
2018-09-21T05:05:31.349Z,19.21
2018-09-21T05:07:59.794Z,19.03
2018-09-21T05:10:28.222Z,19.04
2018-09-21T05:12:56.675Z,19.10
2018-09-21T05:15:25.108Z,19.16
2018-09-21T05:17:53.526Z,19.13
2018-09-21T05:20:22.131Z,18.99
2018-09-21T05:22:50.617Z,18.86
2018-09-21T05:25:19.138Z,18.77
2018-09-21T05:27:47.614Z,18.71
2018-09-21T05:30:16.641Z,18.67
2018-09-21T05:32:45.074Z,18.61
2018-09-21T05:35:13.670Z,18.53
2018-09-21T05:37:42.062Z,18.51
2018-09-21T05:40:14.651Z,18.50
2018-09-21T05:42:43.072Z,18.38
2018-09-21T05:45:11.637Z,18.40
2018-09-21T05:47:40.249Z,18.46
2018-09-21T05:50:08.782Z,18.58
2018-09-21T05:52:37.184Z,18.60
2018-09-21T05:55:05.891Z,18.68
2018-09-21T05:57:34.327Z,18.65
2018-09-21T06:00:02.775Z,18.70
2018-09-21T06:02:31.263Z,18.80
2018-09-21T06:05:04.529Z,18.84
2018-09-21T06:07:33.303Z,18.91
2018-09-21T06:10:01.965Z,18.96
2018-09-21T06:12:30.410Z,19.00
2018-09-21T06:14:58.822Z,19.03
2018-09-21T06:17:27.270Z,19.12
2018-09-21T06:19:55.715Z,19.15
2018-09-21T06:22:24.438Z,19.23
2018-09-21T06:24:52.855Z,19.27
2018-09-21T06:27:21.596Z,19.32
2018-09-21T06:29:50.015Z,19.42
2018-09-21T06:32:18.459Z,19.46
2018-09-21T06:34:46.924Z,19.57
2018-09-21T06:37:15.406Z,19.71
2018-09-21T06:39:43.833Z,19.79
2018-09-21T06:42:12.298Z,19.92
2018-09-21T06:44:40.936Z,20.05
2018-09-21T06:47:09.385Z,20.19
2018-09-21T06:49:37.775Z,20.29
2018-09-21T06:52:06.412Z,20.39
2018-09-21T06:54:34.861Z,20.49
2018-09-21T06:57:03.643Z,20.66
2018-09-21T06:59:32.113Z,20.73
2018-09-21T07:02:00.570Z,20.85
2018-09-21T07:04:29.026Z,20.96
2018-09-21T07:06:57.438Z,21.05
2018-09-21T07:09:28.900Z,21.15
2018-09-21T07:11:57.327Z,21.28
2018-09-21T07:14:25.745Z,21.36
2018-09-21T07:16:54.134Z,21.45
2018-09-21T07:19:22.654Z,21.57
2018-09-21T07:21:51.077Z,21.64
2018-09-21T07:24:19.554Z,21.73
2018-09-21T07:26:47.950Z,21.88
2018-09-21T07:29:16.408Z,21.98
2018-09-21T07:31:44.811Z,22.09
2018-09-21T07:34:13.234Z,22.20
2018-09-21T07:36:41.626Z,22.36
2018-09-21T07:39:10.082Z,22.45
2018-09-21T07:41:38.482Z,22.58
2018-09-21T07:44:06.930Z,22.72
2018-09-21T07:46:35.355Z,22.81
2018-09-21T07:49:03.793Z,22.93
2018-09-21T07:51:32.240Z,23.07
2018-09-21T07:54:00.637Z,23.16
2018-09-21T07:56:29.078Z,23.38
2018-09-21T07:58:57.533Z,23.50
2018-09-21T08:01:25.961Z,23.54
2018-09-21T08:03:54.353Z,23.58
2018-09-21T08:06:22.774Z,23.66
2018-09-21T08:08:51.178Z,23.83
2018-09-21T08:11:19.611Z,23.94
2018-09-21T08:13:48.002Z,24.04
2018-09-21T08:16:16.426Z,24.19
2018-09-21T08:18:44.862Z,24.34
2018-09-21T08:21:13.321Z,24.39
2018-09-21T08:23:41.758Z,24.49
2018-09-21T08:26:10.183Z,24.56
2018-09-21T08:28:38.573Z,24.54
2018-09-21T08:31:07.001Z,24.62
2018-09-21T08:33:35.396Z,24.62
2018-09-21T08:36:03.837Z,24.69
2018-09-21T08:38:32.290Z,24.72
2018-09-21T08:41:00.713Z,24.84
2018-09-21T08:43:29.150Z,24.98
2018-09-21T08:45:57.608Z,25.17
2018-09-21T08:48:26.038Z,25.30
2018-09-21T08:50:54.459Z,25.35
2018-09-21T08:53:22.908Z,25.37
2018-09-21T08:55:51.306Z,25.45
2018-09-21T08:58:19.726Z,25.56
2018-09-21T09:00:48.204Z,25.68
2018-09-21T09:03:16.744Z,25.74
2018-09-21T09:05:49.207Z,25.80
2018-09-21T09:08:17.654Z,25.85
2018-09-21T09:10:46.098Z,25.84
2018-09-21T09:13:14.561Z,25.84
2018-09-21T09:15:42.971Z,25.90
2018-09-21T09:18:11.450Z,26.00
2018-09-21T09:20:39.876Z,26.03
2018-09-21T09:23:08.721Z,26.12
2018-09-21T09:25:37.151Z,26.19
2018-09-21T09:28:05.690Z,26.14
2018-09-21T09:30:34.294Z,26.16
2018-09-21T09:33:03.229Z,26.07
2018-09-21T09:35:31.753Z,26.09
2018-09-21T09:38:00.193Z,26.22
2018-09-21T09:40:28.641Z,26.35
2018-09-21T09:42:57.123Z,26.45
2018-09-21T09:45:25.730Z,26.41
2018-09-21T09:47:54.134Z,26.41
2018-09-21T09:50:22.582Z,26.54
2018-09-21T09:52:50.985Z,26.65
2018-09-21T09:55:19.444Z,26.71
2018-09-21T09:57:47.854Z,26.72
2018-09-21T10:00:20.434Z,26.76
2018-09-21T10:02:48.818Z,26.82
2018-09-21T10:05:17.271Z,26.86
2018-09-21T10:07:45.659Z,26.97
2018-09-21T10:10:14.520Z,27.00
2018-09-21T10:12:42.878Z,27.13
2018-09-21T10:15:11.294Z,27.23
2018-09-21T10:17:39.679Z,27.32
2018-09-21T10:20:08.161Z,27.46
2018-09-21T10:22:36.634Z,27.65
2018-09-21T10:25:05.102Z,27.61
2018-09-21T10:27:33.706Z,27.67
2018-09-21T10:30:01.905Z,27.80
2018-09-21T10:32:30.340Z,27.93
2018-09-21T10:34:58.768Z,27.97
2018-09-21T10:37:27.235Z,27.99
2018-09-21T10:39:55.670Z,28.00
2018-09-21T10:42:24.159Z,28.05
2018-09-21T10:44:52.554Z,28.01
2018-09-21T10:47:20.978Z,27.99
2018-09-21T10:49:49.461Z,27.99
2018-09-21T10:52:17.889Z,28.03
2018-09-21T10:54:46.274Z,27.96
2018-09-21T10:57:14.754Z,27.77
2018-09-21T10:59:43.214Z,27.64
2018-09-21T11:02:11.713Z,27.49
2018-09-21T11:04:40.115Z,27.44
2018-09-21T11:07:08.574Z,27.44
2018-09-21T11:09:36.951Z,27.36
2018-09-21T11:12:05.395Z,27.23
2018-09-21T11:14:33.794Z,27.15
2018-09-21T11:17:02.831Z,27.06
2018-09-21T11:19:31.249Z,27.03
2018-09-21T11:21:59.699Z,27.19
2018-09-21T11:24:28.106Z,27.28
2018-09-21T11:26:56.498Z,27.41
2018-09-21T11:29:24.922Z,27.45
2018-09-21T11:31:53.318Z,27.45
2018-09-21T11:34:22.315Z,27.51
2018-09-21T11:36:50.706Z,27.54
2018-09-21T11:39:19.158Z,27.67
2018-09-21T11:41:47.559Z,27.78
2018-09-21T11:44:15.989Z,27.81
2018-09-21T11:46:44.486Z,27.77
2018-09-21T11:49:12.870Z,27.75
2018-09-21T11:51:41.350Z,27.83
2018-09-21T11:54:09.891Z,27.93
2018-09-21T11:56:38.302Z,27.89
2018-09-21T11:59:06.750Z,27.95
2018-09-21T12:01:35.470Z,27.89
2018-09-21T12:04:03.929Z,27.95
2018-09-21T12:06:32.359Z,27.95
2018-09-21T12:09:00.789Z,27.91
2018-09-21T12:11:29.254Z,27.93
2018-09-21T12:13:57.723Z,27.96
2018-09-21T12:16:26.183Z,28.06
2018-09-21T12:18:54.604Z,28.07
2018-09-21T12:21:23.123Z,28.08
2018-09-21T12:23:51.545Z,28.04
2018-09-21T12:26:20.969Z,28.05
2018-09-21T12:28:49.522Z,28.09
2018-09-21T12:31:18.052Z,28.16
2018-09-21T12:33:46.561Z,28.19
2018-09-21T12:36:15.097Z,28.20
2018-09-21T12:38:43.697Z,28.24
2018-09-21T12:41:12.181Z,28.22
2018-09-21T12:43:40.602Z,28.22
2018-09-21T12:46:22.737Z,28.26
2018-09-21T12:48:52.538Z,28.16
2018-09-21T12:51:22.724Z,28.14
2018-09-21T12:53:51.190Z,28.07
2018-09-21T12:56:19.686Z,28.06
2018-09-21T12:58:48.636Z,28.02
2018-09-21T13:01:17.105Z,28.07
2018-09-21T13:03:45.680Z,28.15
2018-09-21T13:06:14.129Z,28.16
2018-09-21T13:08:42.582Z,28.14
2018-09-21T13:11:11.014Z,28.19
2018-09-21T13:13:39.433Z,28.32
2018-09-21T13:16:08.063Z,28.36
2018-09-21T13:18:36.734Z,28.46
2018-09-21T13:21:05.247Z,28.68
2018-09-21T13:23:33.741Z,28.77
2018-09-21T13:26:02.207Z,28.87
2018-09-21T13:28:30.666Z,28.94
2018-09-21T13:30:59.134Z,28.96
2018-09-21T13:33:27.611Z,28.91
2018-09-21T13:35:56.034Z,28.90
2018-09-21T13:38:24.672Z,28.90
2018-09-21T13:40:53.071Z,28.95
2018-09-21T13:43:21.518Z,28.73
2018-09-21T13:45:49.922Z,28.58
2018-09-21T13:48:18.662Z,28.41
2018-09-21T13:50:47.091Z,28.27
2018-09-21T13:53:15.519Z,28.13
2018-09-21T13:55:43.910Z,28.33
2018-09-21T13:58:12.335Z,28.24
2018-09-21T14:00:40.863Z,28.03
2018-09-21T14:03:09.324Z,27.98
2018-09-21T14:05:37.768Z,27.91
2018-09-21T14:08:06.218Z,27.97
2018-09-21T14:10:34.650Z,27.99
2018-09-21T14:13:03.458Z,28.02
2018-09-21T14:15:31.902Z,28.06
2018-09-21T14:18:00.310Z,27.93
2018-09-21T14:20:28.753Z,27.70
2018-09-21T14:22:57.174Z,27.67
2018-09-21T14:25:25.602Z,27.59
2018-09-21T14:27:53.997Z,27.54
2018-09-21T14:30:22.558Z,27.47
2018-09-21T14:32:50.974Z,27.40
2018-09-21T14:35:19.512Z,27.37
2018-09-21T14:37:48.045Z,27.27
2018-09-21T14:40:20.276Z,27.21
2018-09-21T14:42:48.730Z,27.16
2018-09-21T14:45:17.282Z,27.19
2018-09-21T14:47:45.721Z,27.18
2018-09-21T14:50:14.142Z,27.11
2018-09-21T14:52:42.541Z,27.05
2018-09-21T14:55:11.031Z,26.98
2018-09-21T14:57:39.441Z,26.96
2018-09-21T15:00:08.126Z,26.98
2018-09-21T15:02:36.540Z,27.05
2018-09-21T15:05:05.745Z,27.24
2018-09-21T15:07:34.154Z,27.31
2018-09-21T15:10:03.291Z,27.46
2018-09-21T15:12:31.762Z,27.46
2018-09-21T15:15:00.154Z,27.36
2018-09-21T15:17:28.650Z,27.15
2018-09-21T15:19:57.073Z,26.96
2018-09-21T15:22:25.535Z,26.84
2018-09-21T15:24:53.948Z,26.71
2018-09-21T15:27:22.386Z,26.65
2018-09-21T15:29:51.150Z,26.58
2018-09-21T15:32:19.623Z,26.52
2018-09-21T15:34:48.097Z,26.48
2018-09-21T15:37:16.604Z,26.42
2018-09-21T15:39:45.052Z,26.36
2018-09-21T15:42:13.890Z,26.34
2018-09-21T15:44:42.462Z,26.27
2018-09-21T15:47:10.910Z,26.26
2018-09-21T15:49:39.318Z,26.20
2018-09-21T15:52:07.815Z,26.17
2018-09-21T15:54:36.770Z,26.13
2018-09-21T15:57:05.230Z,26.11
2018-09-21T15:59:33.662Z,26.04
2018-09-21T16:02:02.099Z,26.01
2018-09-21T16:04:30.521Z,25.94
2018-09-21T16:06:58.981Z,25.98
2018-09-21T16:09:27.426Z,25.97
2018-09-21T16:11:55.836Z,25.91
2018-09-21T16:14:24.342Z,25.78
2018-09-21T16:16:52.694Z,25.82
2018-09-21T16:19:21.269Z,25.74
2018-09-21T16:21:49.706Z,25.71
2018-09-21T16:24:18.202Z,25.62
2018-09-21T16:26:46.570Z,25.59
2018-09-21T16:29:15.032Z,25.59
2018-09-21T16:31:43.439Z,25.57
2018-09-21T16:34:11.859Z,25.53
2018-09-21T16:36:40.327Z,25.49
2018-09-21T16:39:11.611Z,25.49
2018-09-21T16:41:40.046Z,25.47
2018-09-21T16:44:08.607Z,25.47
2018-09-21T16:46:37.093Z,25.44
2018-09-21T16:49:05.624Z,25.40
2018-09-21T16:51:34.123Z,25.41
2018-09-21T16:54:02.577Z,25.30
2018-09-21T16:56:31.014Z,25.25
2018-09-21T16:58:59.529Z,25.19
2018-09-21T17:01:27.893Z,25.19
2018-09-21T17:03:56.367Z,25.15
2018-09-21T17:06:24.770Z,25.11
2018-09-21T17:08:53.434Z,25.06
2018-09-21T17:11:21.972Z,24.97
2018-09-21T17:13:50.310Z,25.00
2018-09-21T17:16:18.750Z,24.94
2018-09-21T17:18:47.144Z,24.85
2018-09-21T17:21:15.576Z,24.76
2018-09-21T17:23:43.962Z,24.60
2018-09-21T17:26:12.399Z,24.45
2018-09-21T17:28:40.954Z,24.37
2018-09-21T17:31:12.770Z,24.23
2018-09-21T17:33:41.194Z,23.94
2018-09-21T17:36:09.631Z,23.87
2018-09-21T17:38:38.057Z,23.78
2018-09-21T17:41:06.525Z,23.82
2018-09-21T17:43:35.016Z,23.74
2018-09-21T17:46:03.450Z,23.71
2018-09-21T17:48:32.114Z,23.59
2018-09-21T17:51:00.568Z,23.54
2018-09-21T17:53:28.990Z,23.54
2018-09-21T17:55:57.438Z,23.49
2018-09-21T17:58:26.055Z,23.41
2018-09-21T18:00:54.517Z,23.24
2018-09-21T18:03:23.613Z,23.12
2018-09-21T18:05:52.026Z,23.07
2018-09-21T18:08:20.566Z,23.00
2018-09-21T18:10:49.042Z,22.99
2018-09-21T18:13:17.551Z,22.91
2018-09-21T18:15:45.961Z,22.84
2018-09-21T18:18:14.993Z,22.70
2018-09-21T18:20:43.399Z,22.67
2018-09-21T18:23:11.862Z,22.63
2018-09-21T18:25:40.361Z,22.58
2018-09-21T18:28:08.790Z,22.58
2018-09-21T18:30:38.542Z,22.54
2018-09-21T18:33:07.006Z,22.51
2018-09-21T18:35:35.868Z,22.50
2018-09-21T18:38:04.919Z,22.47
2018-09-21T18:40:34.288Z,22.43
2018-09-21T18:43:03.195Z,22.35
2018-09-21T18:45:31.617Z,22.32
2018-09-21T18:48:00.061Z,22.31
2018-09-21T18:50:28.667Z,22.34
2018-09-21T18:52:57.162Z,22.35
2018-09-21T18:55:25.592Z,22.33
2018-09-21T18:57:54.029Z,22.30
2018-09-21T19:00:22.473Z,22.22
2018-09-21T19:02:51.215Z,22.20
2018-09-21T19:05:19.694Z,22.18
2018-09-21T19:07:48.982Z,22.02
2018-09-21T19:10:18.821Z,21.88
2018-09-21T19:12:47.235Z,21.78
2018-09-21T19:15:16.210Z,21.67
2018-09-21T19:17:44.645Z,21.45
2018-09-21T19:20:13.257Z,21.10
2018-09-21T19:22:41.642Z,20.69
2018-09-21T19:25:10.082Z,20.51
2018-09-21T19:27:38.527Z,20.13
2018-09-21T19:30:06.992Z,19.93
2018-09-21T19:32:35.628Z,19.65
2018-09-21T19:35:04.128Z,19.46
2018-09-21T19:37:32.557Z,19.20
2018-09-21T19:40:01.407Z,19.10
2018-09-21T19:42:30.531Z,19.02
2018-09-21T19:44:59.127Z,18.62
2018-09-21T19:47:27.534Z,18.22
2018-09-21T19:49:56.109Z,18.08
2018-09-21T19:52:24.530Z,17.94
2018-09-21T19:54:53.165Z,17.78
2018-09-21T19:57:21.611Z,17.71
2018-09-21T19:59:50.147Z,17.65
2018-09-21T20:02:18.645Z,17.52
2018-09-21T20:04:47.126Z,17.38
2018-09-21T20:07:15.542Z,17.08
2018-09-21T20:09:44.006Z,16.91
2018-09-21T20:12:12.445Z,16.74
2018-09-21T20:14:41.850Z,16.65
2018-09-21T20:17:10.295Z,16.43
2018-09-21T20:19:39.533Z,16.43
2018-09-21T20:22:09.610Z,16.29
2018-09-21T20:24:38.044Z,16.35
2018-09-21T20:27:07.615Z,16.50
2018-09-21T20:29:36.042Z,16.48
2018-09-21T20:32:09.845Z,16.62
2018-09-21T20:34:39.090Z,16.67
2018-09-21T20:37:07.706Z,16.49
2018-09-21T20:39:36.157Z,16.45
2018-09-21T20:42:04.678Z,16.43
2018-09-21T20:44:33.098Z,16.19
2018-09-21T20:47:01.562Z,16.13
2018-09-21T20:49:30.021Z,15.98
2018-09-21T20:52:00.304Z,15.91
2018-09-21T20:54:28.802Z,15.99
2018-09-21T20:56:57.425Z,15.97
2018-09-21T20:59:26.017Z,15.90
2018-09-21T21:01:54.373Z,15.90
2018-09-21T21:04:22.883Z,15.86
2018-09-21T21:06:51.362Z,15.92
2018-09-21T21:09:20.210Z,15.85
2018-09-21T21:11:48.752Z,15.66
2018-09-21T21:14:17.538Z,15.59
2018-09-21T21:16:45.985Z,15.74
2018-09-21T21:19:14.577Z,15.80
2018-09-21T21:21:43.337Z,15.78
2018-09-21T21:24:11.829Z,15.75
2018-09-21T21:26:40.239Z,15.66
2018-09-21T21:29:08.746Z,15.68
2018-09-21T21:31:37.215Z,15.72
2018-09-21T21:34:05.682Z,15.80
2018-09-21T21:36:34.103Z,15.86
2018-09-21T21:39:03.135Z,15.96
2018-09-21T21:41:31.546Z,16.01
2018-09-21T21:43:59.992Z,16.03
2018-09-21T21:46:28.447Z,16.01
2018-09-21T21:48:56.837Z,15.80
2018-09-21T21:51:25.461Z,15.74
2018-09-21T21:53:54.038Z,15.66
2018-09-21T21:56:22.830Z,15.54
2018-09-21T21:58:52.181Z,15.46
2018-09-21T22:01:25.979Z,15.41
2018-09-21T22:03:54.475Z,15.39
2018-09-21T22:06:22.947Z,15.28
2018-09-21T22:08:52.283Z,15.37
2018-09-21T22:11:26.436Z,15.45
2018-09-21T22:14:00.365Z,15.41
2018-09-21T22:16:29.090Z,15.39
2018-09-21T22:18:57.649Z,15.35
2018-09-21T22:21:26.223Z,15.32
2018-09-21T22:23:55.098Z,15.42
2018-09-21T22:26:23.647Z,15.36
2018-09-21T22:28:52.198Z,15.29
2018-09-21T22:31:20.781Z,15.28
2018-09-21T22:33:49.343Z,15.28
2018-09-21T22:36:17.874Z,15.36
2018-09-21T22:38:47.338Z,15.30
2018-09-21T22:41:15.990Z,15.28
2018-09-21T22:43:44.463Z,15.28
2018-09-21T22:46:13.067Z,15.34
2018-09-21T22:48:41.857Z,15.39
2018-09-21T22:51:10.386Z,15.45
2018-09-21T22:53:39.170Z,15.44
2018-09-21T22:56:08.915Z,15.22
2018-09-21T22:58:38.107Z,15.15
2018-09-21T23:01:06.717Z,15.11
2018-09-21T23:03:35.249Z,15.11
2018-09-21T23:06:04.146Z,15.12
2018-09-21T23:08:32.991Z,15.10
2018-09-21T23:11:01.506Z,15.15
2018-09-21T23:13:31.019Z,15.08
2018-09-21T23:15:59.497Z,15.13
2018-09-21T23:18:27.918Z,15.00
2018-09-21T23:20:56.326Z,14.91
2018-09-21T23:23:24.949Z,14.88
2018-09-21T23:25:53.338Z,14.97
2018-09-21T23:28:21.757Z,15.00
2018-09-21T23:30:50.169Z,15.09
2018-09-21T23:33:18.618Z,15.19
2018-09-21T23:35:47.021Z,15.13
2018-09-21T23:38:15.437Z,15.14
2018-09-21T23:40:43.878Z,15.06
2018-09-21T23:43:12.314Z,15.05
2018-09-21T23:45:40.705Z,15.05
2018-09-21T23:48:09.391Z,14.98
2018-09-21T23:50:37.774Z,14.97
2018-09-21T23:53:06.169Z,14.95
2018-09-21T23:55:34.634Z,14.94
2018-09-21T23:58:03.540Z,14.94
